»·PEaware :: UAL534 PHNL-KLAX

UAL534 :: PHNL-KLAX

FLIGHT INFORMATION

Flight Status: Arrived
Operator:
United Airlines
More flights by this operator :: More flights under this callsign
Pilot: Anonymous 14019 (14019)
Aircraft: BOEING 777-200
(B772)
More flights by this aircraft type
Origin: PHNL Honolulu Intl
United States
Destination: KLAX Los Angeles Intl
United States
More flights between these airports :: More routes between these airports
Route: +MKK4 CLUTS R465 CIVIT R585 GALIP/N0463F410 R585 AUDIA DCT VTU SADDE6
File this flight plan on PilotEdge
Remarks: Real World Commercial Single Engine / Multi Engine Pilot
Altitude:
(Current/Filed)
35,000ft
Speed:
(Current/Filed)
470kts
Departed: 09-Feb-17 04:12 PM
Arrived: 09-Feb-17 08:27 PM
Distance/Time
Traveled:
2217nm/4:15
Distance/Time
To Go:
Arrived

Flight Plot

Page will automatically refresh every two minutes.

Flight plan parsing failed; only flown route is shown


Map Options




Map Legend


Flown Route
Filed Route
Departure Airport
Arrival Airport
Navaid (VOR, NDB)
Fix

Horizontal Profiles

Position Reports

Time Latitude Longitude Heading Altitude Ground
Speed
09-Feb-17 16:11 21.185266 -157.347259 105 20345ft 474kts
09-Feb-17 16:12 21.153867 -157.206487 88 23019ft 498kts
09-Feb-17 16:13 21.208187 -157.072711 48 25501ft 501kts
09-Feb-17 16:14 21.297137 -156.957143 45 27914ft 519kts
09-Feb-17 16:15 21.389929 -156.834957 45 30311ft 538kts
09-Feb-17 16:16 21.484763 -156.709388 45 33012ft 539kts
09-Feb-17 16:17 21.578599 -156.584560 43 35591ft 532kts
09-Feb-17 16:18 21.670824 -156.461601 43 37713ft 526kts
09-Feb-17 16:19 21.762106 -156.339467 43 39051ft 523kts
09-Feb-17 16:20 21.853019 -156.218099 43 39056ft 521kts
09-Feb-17 16:21 21.944810 -156.095185 44 39056ft 533kts
09-Feb-17 16:22 22.037685 -155.970337 43 39104ft 533kts
09-Feb-17 16:23 22.130274 -155.845617 43 39115ft 533kts
09-Feb-17 16:24 22.222799 -155.720678 43 39121ft 533kts
09-Feb-17 16:25 22.315270 -155.595516 43 39125ft 534kts
09-Feb-17 16:26 22.407989 -155.469719 43 39063ft 534kts
09-Feb-17 16:27 22.500272 -155.344216 44 39061ft 534kts
09-Feb-17 16:28 22.592550 -155.218419 44 39061ft 534kts
09-Feb-17 16:29 22.684740 -155.092437 44 39060ft 534kts
09-Feb-17 16:30 22.777160 -154.965834 44 39055ft 534kts
09-Feb-17 16:31 22.869290 -154.839583 44 39054ft 535kts
09-Feb-17 16:32 22.961176 -154.712869 44 39053ft 535kts
09-Feb-17 16:33 23.049787 -154.582390 50 39053ft 542kts
09-Feb-17 16:34 23.131179 -154.444911 49 39052ft 541kts
09-Feb-17 16:35 23.214181 -154.307957 49 39051ft 542kts
09-Feb-17 16:36 23.297165 -154.171369 49 39050ft 542kts
09-Feb-17 16:37 23.379966 -154.034365 49 39049ft 543kts
09-Feb-17 16:38 23.462718 -153.897052 49 39048ft 543kts
09-Feb-17 16:39 23.545744 -153.758904 49 39052ft 544kts
09-Feb-17 16:40 23.628476 -153.621165 49 39052ft 544kts
09-Feb-17 16:41 23.710922 -153.483093 49 39051ft 544kts
09-Feb-17 16:42 23.793279 -153.344861 49 39050ft 543kts
09-Feb-17 16:43 23.875514 -153.207164 49 39050ft 543kts
09-Feb-17 16:44 23.958346 -153.067854 49 39049ft 543kts
09-Feb-17 16:45 24.040870 -152.929756 49 39049ft 544kts
09-Feb-17 16:46 24.123470 -152.790662 49 39048ft 545kts
09-Feb-17 16:47 24.205765 -152.651565 49 39047ft 545kts
09-Feb-17 16:48 24.288200 -152.511821 49 39047ft 545kts
09-Feb-17 16:49 24.370226 -152.372372 49 39046ft 545kts
09-Feb-17 16:50 24.452167 -152.232670 50 39045ft 545kts
09-Feb-17 16:51 24.533957 -152.092824 50 39052ft 545kts
09-Feb-17 16:52 24.615673 -151.952687 49 39052ft 546kts
09-Feb-17 16:53 24.698008 -151.811102 49 39051ft 549kts
09-Feb-17 16:54 24.779974 -151.669728 49 39050ft 549kts
09-Feb-17 16:55 24.861821 -151.528144 49 39050ft 549kts
09-Feb-17 16:56 24.943548 -151.386347 50 39049ft 549kts
09-Feb-17 16:57 25.025442 -151.243836 50 39048ft 549kts
09-Feb-17 16:58 25.106914 -151.101635 50 39047ft 549kts
09-Feb-17 16:59 25.188300 -150.959156 50 39046ft 549kts
09-Feb-17 17:00 25.269858 -150.815947 50 39045ft 550kts
09-Feb-17 17:01 25.351021 -150.672996 50 39044ft 550kts
09-Feb-17 17:02 25.432056 -150.529834 50 39043ft 550kts
09-Feb-17 17:03 25.513103 -150.386214 50 39043ft 551kts
09-Feb-17 17:04 25.594330 -150.241830 50 39042ft 551kts
09-Feb-17 17:05 25.675199 -150.097633 50 39041ft 552kts
09-Feb-17 17:06 25.756017 -149.953081 50 39032ft 552kts
09-Feb-17 17:07 25.836699 -149.808319 50 39031ft 552kts
09-Feb-17 17:08 25.917528 -149.662834 50 39030ft 552kts
09-Feb-17 17:09 25.997960 -149.517606 50 39030ft 552kts
09-Feb-17 17:10 26.078335 -149.372018 50 39028ft 553kts
09-Feb-17 17:11 26.158614 -149.226140 50 39027ft 554kts
09-Feb-17 17:12 26.238795 -149.079970 50 39026ft 554kts
09-Feb-17 17:13 26.319085 -148.933128 51 39025ft 554kts
09-Feb-17 17:14 26.398931 -148.786625 51 39024ft 553kts
09-Feb-17 17:15 26.478598 -148.639971 51 39023ft 553kts
09-Feb-17 17:16 26.558101 -148.493140 51 39022ft 553kts
09-Feb-17 17:17 26.637762 -148.345533 51 39021ft 553kts
09-Feb-17 17:18 26.717029 -148.198169 51 39020ft 554kts
09-Feb-17 17:19 26.796257 -148.050387 51 39019ft 554kts
09-Feb-17 17:20 26.875402 -147.902266 51 39018ft 556kts
09-Feb-17 17:21 26.954607 -147.753535 51 39018ft 557kts
09-Feb-17 17:22 27.033996 -147.603950 51 39017ft 557kts
09-Feb-17 17:23 27.113094 -147.454876 51 39015ft 557kts
09-Feb-17 17:24 27.191727 -147.305346 52 39014ft 557kts
09-Feb-17 17:25 27.267745 -147.153512 57 39013ft 563kts
09-Feb-17 17:26 27.334338 -146.993497 58 39012ft 564kts
09-Feb-17 17:27 27.402040 -146.834589 57 38973ft 563kts
09-Feb-17 17:28 27.470231 -146.675933 57 38969ft 564kts
09-Feb-17 17:29 27.538129 -146.516595 58 38967ft 565kts
09-Feb-17 17:30 27.605824 -146.357031 58 38965ft 565kts
09-Feb-17 17:31 27.673701 -146.196388 58 38963ft 567kts
09-Feb-17 17:32 27.741283 -146.035808 58 38969ft 567kts
09-Feb-17 17:33 27.808705 -145.874971 58 38967ft 567kts
09-Feb-17 17:34 27.875940 -145.713931 58 38965ft 567kts
09-Feb-17 17:35 27.943212 -145.552155 58 38964ft 567kts
09-Feb-17 17:36 28.010010 -145.390857 58 38964ft 566kts
09-Feb-17 17:37 28.076578 -145.229475 58 38962ft 566kts
09-Feb-17 17:38 28.142965 -145.067868 58 38960ft 567kts
09-Feb-17 17:39 28.209186 -144.905999 58 38959ft 566kts
09-Feb-17 17:40 28.275322 -144.743671 58 38957ft 566kts
09-Feb-17 17:41 28.341075 -144.581613 59 38955ft 566kts
09-Feb-17 17:42 28.406768 -144.419035 59 38950ft 568kts
09-Feb-17 17:43 28.472408 -144.255894 59 38948ft 568kts
09-Feb-17 17:44 28.538066 -144.092022 59 38947ft 568kts
09-Feb-17 17:45 28.603343 -143.928411 59 38945ft 570kts
09-Feb-17 17:46 28.668703 -143.763887 59 38943ft 571kts
09-Feb-17 17:47 28.733870 -143.599146 60 38942ft 571kts
09-Feb-17 17:48 28.798841 -143.434189 60 38940ft 571kts
09-Feb-17 17:49 28.863862 -143.268389 60 38939ft 572kts
09-Feb-17 17:50 28.928555 -143.102696 60 38937ft 572kts
09-Feb-17 17:51 28.993034 -142.936827 60 38936ft 572kts
09-Feb-17 17:52 29.057330 -142.770698 60 38934ft 572kts
09-Feb-17 17:53 29.121423 -142.604359 60 38932ft 572kts
09-Feb-17 17:54 29.185615 -142.437015 61 38931ft 573kts
09-Feb-17 17:55 29.249405 -142.269971 61 38930ft 573kts
09-Feb-17 17:56 29.313071 -142.102495 61 38929ft 575kts
09-Feb-17 17:57 29.376577 -141.934698 61 38928ft 575kts
09-Feb-17 17:58 29.440266 -141.765614 61 38926ft 576kts
09-Feb-17 17:59 29.503495 -141.597003 61 38919ft 575kts
09-Feb-17 18:00 29.566478 -141.428249 61 38916ft 576kts
09-Feb-17 18:01 29.629308 -141.259128 62 38915ft 576kts
09-Feb-17 18:02 29.691966 -141.089685 62 38880ft 577kts
09-Feb-17 18:03 29.754707 -140.919216 62 38876ft 578kts
09-Feb-17 18:04 29.817089 -140.748914 62 38875ft 578kts
09-Feb-17 18:05 29.879497 -140.578332 63 38874ft 579kts
09-Feb-17 18:06 29.941433 -140.407083 63 38879ft 580kts
09-Feb-17 18:07 29.999752 -140.232702 66 38878ft 582kts
09-Feb-17 18:08 30.056238 -140.057892 66 38877ft 582kts
09-Feb-17 18:09 30.113232 -139.884045 67 38926ft 575kts
09-Feb-17 18:10 30.169266 -139.711369 67 38937ft 575kts
09-Feb-17 18:11 30.225066 -139.538231 67 38952ft 576kts
09-Feb-17 18:12 30.280870 -139.364126 68 38952ft 576kts
09-Feb-17 18:13 30.336363 -139.190082 68 38952ft 577kts
09-Feb-17 18:14 30.391660 -139.015731 68 38952ft 578kts
09-Feb-17 18:15 30.446775 -138.841025 68 38952ft 579kts
09-Feb-17 18:16 30.501917 -138.665288 68 38952ft 579kts
09-Feb-17 18:17 30.556715 -138.489702 68 38952ft 580kts
09-Feb-17 18:18 30.611278 -138.313916 68 38952ft 580kts
09-Feb-17 18:19 30.665619 -138.137883 68 38953ft 580kts
09-Feb-17 18:20 30.719732 -137.961726 69 38953ft 578kts
09-Feb-17 18:21 30.773304 -137.786182 70 38953ft 574kts
09-Feb-17 18:22 30.825687 -137.613647 70 38953ft 574kts
09-Feb-17 18:23 30.879286 -137.436144 70 38954ft 575kts
09-Feb-17 18:24 30.923244 -137.289830 71 38954ft 575kts
09-Feb-17 18:25 30.975909 -137.113608 71 38955ft 575kts
09-Feb-17 18:26 31.028248 -136.937499 71 38955ft 575kts
09-Feb-17 18:27 31.080313 -136.761301 71 38956ft 576kts
09-Feb-17 18:28 31.132220 -136.584646 71 38956ft 576kts
09-Feb-17 18:29 31.183846 -136.407921 72 38957ft 576kts
09-Feb-17 18:30 31.235384 -136.230480 72 38958ft 575kts
09-Feb-17 18:31 31.286502 -136.053463 72 38959ft 575kts
09-Feb-17 18:32 31.336783 -135.878340 73 38959ft 574kts
09-Feb-17 18:33 31.358351 -135.802883 73 38960ft 574kts
09-Feb-17 18:34 31.438200 -135.521920 73 38968ft 574kts
09-Feb-17 18:35 31.488250 -135.344462 73 38970ft 575kts
09-Feb-17 18:36 31.538116 -135.166602 73 38950ft 575kts
09-Feb-17 18:37 31.587780 -134.988391 74 38950ft 576kts
09-Feb-17 18:38 31.637261 -134.809740 74 38951ft 577kts
09-Feb-17 18:39 31.686705 -134.630139 74 38952ft 577kts
09-Feb-17 18:40 31.735814 -134.450655 75 38953ft 578kts
09-Feb-17 18:41 31.784714 -134.270826 75 38954ft 579kts
09-Feb-17 18:42 31.833355 -134.090809 75 38955ft 579kts
09-Feb-17 18:43 31.881784 -133.910460 75 38962ft 579kts
09-Feb-17 18:44 31.930107 -133.729364 75 38965ft 579kts
09-Feb-17 18:45 31.978005 -133.548713 75 38966ft 578kts
09-Feb-17 18:46 32.025576 -133.368199 77 38967ft 575kts
09-Feb-17 18:47 32.072692 -133.188218 77 38968ft 575kts
09-Feb-17 18:48 32.119835 -133.007648 77 38959ft 574kts
09-Feb-17 18:49 32.166180 -132.827595 77 38958ft 575kts
09-Feb-17 18:50 32.212253 -132.647172 78 38957ft 574kts
09-Feb-17 18:51 32.257848 -132.466767 78 38958ft 574kts
09-Feb-17 18:52 32.304192 -132.285891 78 38959ft 574kts
09-Feb-17 18:53 32.349733 -132.105453 78 38959ft 573kts
09-Feb-17 18:54 32.394907 -131.924921 79 38957ft 572kts
09-Feb-17 18:55 32.439690 -131.744532 79 38953ft 572kts
09-Feb-17 18:56 32.484211 -131.564048 79 38955ft 572kts
09-Feb-17 18:57 32.528625 -131.382777 79 38956ft 572kts
09-Feb-17 18:58 32.572629 -131.201947 79 38958ft 571kts
09-Feb-17 18:59 32.616293 -131.021276 79 38959ft 571kts
09-Feb-17 19:00 32.659697 -130.840431 80 38961ft 570kts
09-Feb-17 19:01 32.702967 -130.658884 80 38963ft 570kts
09-Feb-17 19:02 32.745780 -130.477989 80 38964ft 569kts
09-Feb-17 19:03 32.788296 -130.297079 80 38966ft 569kts
09-Feb-17 19:04 32.830532 -130.116079 80 38967ft 569kts
09-Feb-17 19:05 32.872719 -129.934045 81 38969ft 569kts
09-Feb-17 19:06 32.914443 -129.752609 81 39002ft 569kts
09-Feb-17 19:07 32.955899 -129.571044 81 39003ft 569kts
09-Feb-17 19:08 32.997113 -129.389264 81 39005ft 569kts
09-Feb-17 19:09 33.037997 -129.207593 81 39006ft 568kts
09-Feb-17 19:10 33.078699 -129.025384 81 39007ft 567kts
09-Feb-17 19:11 33.118927 -128.843952 81 39005ft 566kts
09-Feb-17 19:12 33.158833 -128.662625 81 39004ft 566kts
09-Feb-17 19:13 33.198463 -128.481193 81 39006ft 565kts
09-Feb-17 19:14 33.237937 -128.299101 81 39007ft 565kts
09-Feb-17 19:15 33.276997 -128.117536 81 39004ft 565kts
09-Feb-17 19:16 33.315776 -127.935887 81 39002ft 564kts
09-Feb-17 19:17 33.354222 -127.754404 82 39003ft 563kts
09-Feb-17 19:18 33.392393 -127.572810 82 39020ft 563kts
09-Feb-17 19:19 33.430403 -127.390555 81 39022ft 564kts
09-Feb-17 19:20 33.468004 -127.208841 82 39018ft 562kts
09-Feb-17 19:21 33.505284 -127.027235 81 39023ft 562kts
09-Feb-17 19:22 33.542247 -126.845714 81 39025ft 561kts
09-Feb-17 19:23 33.579041 -126.663594 81 39026ft 561kts
09-Feb-17 19:24 33.615400 -126.482144 81 39028ft 560kts
09-Feb-17 19:25 33.651451 -126.300761 82 39030ft 559kts
09-Feb-17 19:26 33.687244 -126.119186 82 39031ft 559kts
09-Feb-17 19:27 33.722756 -125.937542 82 39033ft 559kts
09-Feb-17 19:28 33.758054 -125.755481 82 39034ft 558kts
09-Feb-17 19:29 33.792996 -125.573730 82 39031ft 559kts
09-Feb-17 19:30 33.827647 -125.391956 82 39033ft 558kts
09-Feb-17 19:31 33.862326 -125.210203 81 39035ft 558kts
09-Feb-17 19:32 33.896269 -125.027869 81 39036ft 557kts
09-Feb-17 19:33 33.930170 -124.846181 81 39037ft 557kts
09-Feb-17 19:34 33.964137 -124.664409 81 39039ft 557kts
09-Feb-17 19:35 33.997925 -124.482578 80 39043ft 557kts
09-Feb-17 19:36 34.032265 -124.300134 82 39044ft 557kts
09-Feb-17 19:37 34.065700 -124.118161 82 39046ft 556kts
09-Feb-17 19:38 34.098813 -123.936283 82 39047ft 556kts
09-Feb-17 19:39 34.131661 -123.754206 82 39047ft 555kts
09-Feb-17 19:40 34.164180 -123.572351 82 39048ft 554kts
09-Feb-17 19:41 34.188158 -123.389412 92 39050ft 546kts
09-Feb-17 19:42 34.190215 -123.207140 96 39099ft 543kts
09-Feb-17 19:43 34.189504 -123.025192 96 39097ft 542kts
09-Feb-17 19:44 34.188654 -122.843422 96 39099ft 542kts
09-Feb-17 19:45 34.187549 -122.661219 95 39100ft 541kts
09-Feb-17 19:46 34.186182 -122.479839 95 39103ft 540kts
09-Feb-17 19:47 34.184553 -122.298572 95 39105ft 540kts
09-Feb-17 19:48 34.182658 -122.117505 95 39102ft 540kts
09-Feb-17 19:49 34.180519 -121.936487 96 39104ft 539kts
09-Feb-17 19:50 34.178070 -121.755023 96 39104ft 539kts
09-Feb-17 19:51 34.175384 -121.574283 96 39106ft 538kts
09-Feb-17 19:52 34.172444 -121.394102 96 39108ft 536kts
09-Feb-17 19:53 34.169252 -121.214510 96 39110ft 535kts
09-Feb-17 19:54 34.166005 -121.044918 96 38905ft 524kts
09-Feb-17 19:55 34.162422 -120.870487 97 36569ft 522kts
09-Feb-17 19:56 34.158547 -120.693874 97 33926ft 542kts
09-Feb-17 19:57 34.154289 -120.512022 97 33883ft 537kts
09-Feb-17 19:58 34.150004 -120.339308 97 32416ft 496kts
09-Feb-17 19:59 34.145605 -120.170883 97 31873ft 504kts
09-Feb-17 20:00 34.140888 -119.999230 96 28953ft 516kts
09-Feb-17 20:01 34.136040 -119.830605 97 25967ft 491kts
09-Feb-17 20:02 34.131219 -119.669718 97 22976ft 470kts
09-Feb-17 20:03 34.126420 -119.514838 97 19976ft 451kts
09-Feb-17 20:04 34.123224 -119.365813 95 16754ft 436kts
09-Feb-17 20:05 34.119819 -119.227070 97 13171ft 396kts
09-Feb-17 20:06 34.116292 -119.102931 96 11335ft 334kts
09-Feb-17 20:07 34.101226 -118.996166 112 11042ft 320kts
09-Feb-17 20:08 34.073872 -118.894414 113 11021ft 318kts
09-Feb-17 20:09 34.046617 -118.793045 113 10955ft 319kts
09-Feb-17 20:10 34.031625 -118.689682 98 9176ft 300kts
09-Feb-17 20:11 34.023204 -118.593327 98 7667ft 285kts
09-Feb-17 20:12 34.014313 -118.499625 98 6992ft 277kts
09-Feb-17 20:13 34.012460 -118.406767 89 6995ft 278kts
09-Feb-17 20:14 34.021097 -118.310872 83 5544ft 286kts
09-Feb-17 20:15 34.030147 -118.224014 83 4983ft 239kts
09-Feb-17 20:16 34.038130 -118.147589 83 4999ft 226kts
09-Feb-17 20:17 34.046038 -118.072031 83 5014ft 226kts
09-Feb-17 20:18 34.051923 -117.996824 102 5017ft 223kts
09-Feb-17 20:19 34.002319 -117.977214 192 5018ft 211kts
09-Feb-17 20:20 33.972683 -118.028941 262 5011ft 213kts
09-Feb-17 20:21 33.966472 -118.099747 262 4674ft 212kts
09-Feb-17 20:22 33.959449 -118.169179 262 3561ft 196kts
09-Feb-17 20:23 33.953008 -118.232192 263 2576ft 188kts
09-Feb-17 20:24 33.946707 -118.293970 263 1550ft 179kts
09-Feb-17 20:25 33.941569 -118.344939 261 760ft 142kts
09-Feb-17 20:26 33.936991 -118.388999 260 141ft 112kts
09-Feb-17 20:27 33.936819 -118.400034 300 139ft 4kts
09-Feb-17 20:28 33.938465 -118.403531 261 139ft 6kts
09-Feb-17 20:29 33.940540 -118.405644 352 139ft 13kts

Navigation Log

Ident Type
Flight plan parsing failed, navigation log unavailable